Data for 08/13/2006

Time Sea-Level Adjusted Pressure Absolute Pressure Temperature Relative Humidity Dew Point   
(mb) (inHg) (mb) (inHg) (C) (F) (%) (C) (F)
00:05 1021 30.15 850 25.1 9.3 48.8 88 7.4 45.3
00:10 1021 30.15 850 25.1 9.2 48.6 89 7.4 45.4
00:15 1021 30.15 850 25.1 9 48.3 88 7.1 44.8
00:20 1021 30.15 850 25.1 8.9 48 88 6.9 44.5
00:25 1021 30.15 850 25.1 8.8 47.8 87 6.8 44.2
00:30 1021 30.15 850 25.1 8.8 47.9 87 6.8 44.2
00:35 1021 30.15 850 25.1 8.9 48.1 88 7 44.6
00:40 1021 30.15 850 25.1 9.2 48.5 87 7.1 44.8
00:45 1021 30.15 850 25.1 9.1 48.3 89 7.3 45.1
00:50 1021 30.15 850 25.1 9 48.2 89 7.3 45.1
00:55 1021 30.15 850 25.1 8.8 47.9 89 7.2 44.9
01:00 1021 30.15 850 25.1 8.7 47.7 89 7 44.6
01:05 1021 30.15 850 25.1 8.6 47.5 87 6.6 43.9
01:10 1021 30.15 850 25.1 8.6 47.6 87 6.6 43.8
01:15 1021 30.15 850 25.1 8.5 47.3 86 6.3 43.3
01:20 1021 30.15 850 25.1 8.5 47.3 85 6.2 43.1
01:25 1021 30.15 850 25.1 8.5 47.3 84 6 42.9
01:30 1021 30.15 850 25.1 8.5 47.3 84 5.9 42.7
01:35 1021 30.15 850 25.1 8.5 47.3 83 5.8 42.4
01:40 1021 30.15 850 25.1 8.5 47.2 85 6.2 43.1
01:45 1021 30.15 850 25.1 8.5 47.3 86 6.3 43.3
01:50 1021 30.15 850 25.1 8.3 46.9 87 6.3 43.3
01:55 1021 30.15 850 25.1 8 46.5 89 6.3 43.4
02:00 1021 30.15 850 25.1 8 46.3 89 6.2 43.2
02:05 1021 30.15 850 25.1 8.1 46.5 89 6.4 43.5
02:10 1021 30.15 850 25.1 8.1 46.6 89 6.5 43.6
02:15 1021 30.15 850 25.1 8.2 46.8 88 6.4 43.5
02:20 1021 30.15 850 25.1 8.2 46.8 87 6.3 43.3
02:25 1021 30.15 850 25.1 8.1 46.6 87 6.1 43
02:30 1021 30.15 850 25.1 7.9 46.2 88 6 42.9
02:35 1021 30.15 850 25.1 8 46.5 87 6.1 42.9
02:40 1021 30.15 850 25.1 8 46.4 88 6.1 43
02:45 1021 30.15 850 25.1 7.9 46.3 88 6 42.9
02:50 1021 30.15 850 25.1 7.8 46 86 5.7 42.2
02:55 1021 30.15 851 25.13 7.7 45.9 86 5.6 42
03:00 1021 30.15 851 25.13 7.9 46.1 86 5.7 42.3
03:05 1021 30.15 851 25.13 7.9 46.2 86 5.8 42.4
03:10 1021 30.15 851 25.13 7.9 46.2 86 5.7 42.2
03:15 1021 30.15 851 25.13 7.8 46.1 86 5.7 42.2
03:20 1021 30.15 851 25.13 7.8 46 86 5.6 42.1
03:25 1021 30.15 851 25.13 7.8 46 85 5.4 41.8
03:30 1021 30.15 851 25.13 7.8 46 85 5.4 41.8
03:35 1022 30.18 851 25.13 7.7 45.8 83 5 41
03:40 1022 30.18 851 25.13 7.5 45.6 83 4.9 40.8
03:45 1022 30.18 851 25.13 7.3 45.2 83 4.6 40.4
03:50 1022 30.18 851 25.13 7.6 45.6 81 4.6 40.2
03:55 1022 30.18 851 25.13 7.9 46.2 81 4.9 40.8
04:00 1022 30.18 851 25.13 7.9 46.2 81 4.9 40.8
04:05 1022 30.18 851 25.13 7.9 46.2 82 5.1 41.1
04:10 1022 30.18 851 25.13 7.7 45.9 82 4.8 40.7
04:15 1022 30.18 851 25.13 7.6 45.6 82 4.7 40.4
04:20 1022 30.18 851 25.13 7.4 45.2 82 4.5 40.1
04:25 1022 30.18 851 25.13 7.4 45.2 82 4.5 40.2
04:30 1022 30.18 851 25.13 7 44.5 83 4.2 39.6
04:35 1022 30.18 851 25.13 7.2 45 79 3.9 39.1
04:40 1022 30.18 851 25.13 7.3 45.1 81 4.2 39.6
04:45 1022 30.18 851 25.13 7.2 44.9 81 4.1 39.4
04:50 1022 30.18 851 25.13 7.3 45.1 83 4.6 40.4
04:55 1022 30.18 851 25.13 7.3 45.1 83 4.6 40.3
05:00 1022 30.18 851 25.13 7.2 44.9 82 4.3 39.8
05:05 1022 30.18 851 25.13 7.5 45.6 81 4.4 40
05:10 1022 30.18 851 25.13 7.5 45.5 81 4.5 40
05:15 1022 30.18 851 25.13 7.2 45 81 4.2 39.5
05:20 1022 30.18 851 25.13 7.3 45.2 80 4.1 39.3
05:25 1022 30.18 851 25.13 7.2 44.9 80 3.9 39
05:30 1022 30.18 851 25.13 7 44.5 81 3.9 39
05:35 1022 30.18 851 25.13 6.8 44.3 82 3.9 39.1
05:40 1022 30.18 851 25.13 6.8 44.2 83 4.1 39.4
05:45 1022 30.18 851 25.13 7.1 44.8 82 4.2 39.5
05:50 1022 30.18 851 25.13 7.4 45.4 80 4.3 39.7
05:55 1022 30.18 852 25.16 7.5 45.4 79 4.1 39.4
06:00 1022 30.18 852 25.16 7.5 45.4 81 4.4 40
06:05 1022 30.18 852 25.16 7.3 45.1 83 4.5 40.2
06:10 1022 30.18 852 25.16 7 44.6 83 4.3 39.8
06:15 1022 30.18 852 25.16 6.9 44.4 84 4.3 39.7
06:20 1023 30.21 852 25.16 6.8 44.3 83 4.2 39.5
06:25 1023 30.21 852 25.16 6.9 44.4 83 4.1 39.4
06:30 1023 30.21 852 25.16 6.9 44.5 82 4.1 39.4
06:35 1023 30.21 852 25.16 7.1 44.9 82 4.2 39.6
06:40 1023 30.21 852 25.16 6.8 44.3 83 4.1 39.3
06:45 1023 30.21 852 25.16 6.6 43.8 83 4 39.1
06:50 1023 30.21 852 25.16 6.6 43.8 85 4.1 39.5
06:55 1023 30.21 852 25.16 6.7 44.1 83 4 39.2
07:00 1023 30.21 852 25.16 6.5 43.7 82 3.7 38.7
07:05 1023 30.21 852 25.16 6.5 43.7 83 3.7 38.7
07:10 1023 30.21 852 25.16 6.4 43.5 83 3.7 38.7
07:15 1023 30.21 852 25.16 6.6 44 82 3.8 38.8
07:20 1023 30.21 852 25.16 6.8 44.3 81 3.7 38.7
07:25 1023 30.21 852 25.16 6.9 44.4 80 3.7 38.7
07:30 1023 30.21 852 25.16 7.3 45.2 79 4 39.2
07:35 1023 30.21 852 25.16 7.8 46 78 4.1 39.5
07:40 1023 30.21 852 25.16 7.8 46 79 4.3 39.8
07:45 1023 30.21 852 25.16 7.9 46.1 78 4.3 39.7
07:50 1023 30.21 852 25.16 8 46.5 78 4.5 40
07:55 1023 30.21 852 25.16 8.3 46.9 78 4.6 40.3
08:00 1023 30.21 852 25.16 8.7 47.7 79 5.2 41.4
08:05 1023 30.21 852 25.16 9.1 48.4 78 5.5 41.8
08:10 1023 30.21 852 25.16 9.5 49.2 77 5.7 42.2
08:15 1023 30.21 852 25.16 9.7 49.4 77 5.9 42.7
08:20 1023 30.21 852 25.16 10 50 77 6.1 43
08:25 1023 30.21 853 25.19 10.5 50.9 75 6.2 43.2
08:30 1023 30.21 853 25.19 10.8 51.5 73 6.2 43.2
08:35 1023 30.21 853 25.19 11.4 52.4 70 6.1 43.1
08:40 1023 30.21 853 25.19 12.2 53.9 65 5.8 42.4
08:45 1023 30.21 853 25.19 12.5 54.4 65 6 42.8
08:50 1023 30.21 853 25.19 12.9 55.3 61 5.7 42.2
08:55 1023 30.21 853 25.19 13.3 56 60 5.8 42.4
09:00 1023 30.21 853 25.19 13.3 55.9 62 6.3 43.3
09:05 1023 30.21 853 25.19 13.5 56.2 59 5.7 42.2
09:10 1023 30.21 853 25.19 13.9 57.1 59 6.2 43.2
09:15 1023 30.21 853 25.19 14.4 57.9 56 5.9 42.5
09:20 1024 30.24 853 25.19 14.6 58.2 57 6.1 43
09:25 1024 30.24 853 25.19 14.8 58.7 56 6.3 43.3
09:30 1024 30.24 853 25.19 15.1 59.1 54 5.9 42.6
09:35 1023 30.21 853 25.19 14.9 58.8 53 5.4 41.8
09:40 1023 30.21 853 25.19 15.1 59.2 54 5.9 42.7
09:45 1023 30.21 853 25.19 14.9 58.9 54 5.6 42.2
09:50 1023 30.21 853 25.19 15.4 59.8 52 5.8 42.4
09:55 1023 30.21 853 25.19 14.6 58.3 58 6.5 43.6
10:00 1023 30.21 853 25.19 14.8 58.6 57 6.5 43.7
10:05 1023 30.21 853 25.19 15.4 59.6 56 6.7 44.1
10:10 1023 30.21 853 25.19 16 60.9 54 6.9 44.4
10:15 1023 30.21 853 25.19 16.4 61.6 54 7.1 44.8
10:20 1024 30.24 853 25.19 16.3 61.3 54 7.1 44.8
10:25 1024 30.24 853 25.19 16.5 61.6 55 7.6 45.6
10:30 1024 30.24 853 25.19 15.7 60.2 58 7.6 45.8
10:35 1024 30.24 853 25.19 15.6 60.1 58 7.4 45.4
10:40 1024 30.24 853 25.19 16.5 61.6 53 6.9 44.4
10:45 1024 30.24 853 25.19 16.7 62.1 54 7.5 45.5
10:50 1024 30.24 853 25.19 16.4 61.5 51 6.4 43.6
10:55 1024 30.24 853 25.19 17.2 62.9 52 7.4 45.3
11:00 1024 30.24 853 25.19 17.2 63 52 7.5 45.5
11:05 1024 30.24 853 25.19 16.2 61.2 55 7.2 45
11:10 1024 30.24 853 25.19 16.9 62.3 51 6.8 44.3
11:15 1024 30.24 853 25.19 17.5 63.4 50 7.1 44.7
11:20 1024 30.24 853 25.19 17.3 63.1 50 6.7 44.1
11:25 1024 30.24 853 25.19 17.5 63.4 48 6.5 43.6
11:30 1024 30.24 853 25.19 18.3 64.9 46 6.5 43.7
11:35 1024 30.24 853 25.19 18.4 65.2 44 6.1 43
11:40 1024 30.24 853 25.19 18.7 65.7 46 6.9 44.5
11:45 1024 30.24 853 25.19 18.6 65.4 42 5.5 41.9
11:50 1024 30.24 853 25.19 18 64.5 43 5.4 41.8
11:55 1024 30.24 853 25.19 19 66.1 39 4.8 40.6
12:00 1023 30.21 853 25.19 19.3 66.8 34 3.1 37.5
12:05 1023 30.21 853 25.19 19.5 67.2 33 3.1 37.6
12:10 1023 30.21 853 25.19 19.3 66.8 35 3.8 38.8
12:15 1023 30.21 853 25.19 19.8 67.6 35 3.8 38.9
12:20 1023 30.21 853 25.19 19.8 67.7 35 3.9 39.1
12:25 1023 30.21 852 25.16 20.2 68.4 32 3.2 37.8
12:30 1023 30.21 852 25.16 20.4 68.7 32 3.2 37.7
12:35 1023 30.21 852 25.16 19.9 67.7 35 4.2 39.6
12:40 1023 30.21 852 25.16 19.5 67.2 35 3.7 38.7
12:45 1023 30.21 852 25.16 19.8 67.6 34 3.6 38.5
12:50 1023 30.21 852 25.16 20 68 32 3.1 37.6
12:55 1023 30.21 852 25.16 20.7 69.2 32 3.4 38.1
13:00 1023 30.21 852 25.16 20.6 69.1 31 2.9 37.2
13:05 1023 30.21 852 25.16 19.7 67.5 33 3.3 37.9
13:10 1023 30.21 852 25.16 19.6 67.3 32 2.5 36.4
13:15 1023 30.21 852 25.16 20.1 68.2 30 2.4 36.3
13:20 1023 30.21 852 25.16 20.9 69.5 30 2.7 36.9
13:25 1023 30.21 852 25.16 20.9 69.6 30 2.7 36.8
13:30 1023 30.21 852 25.16 21.4 70.6 29 2.9 37.3
13:35 1023 30.21 852 25.16 21.7 71 28 2.7 36.9
13:40 1023 30.21 852 25.16 21.4 70.6 29 3 37.4
13:45 1022 30.18 852 25.16 21.7 71.1 30 3.5 38.2
13:50 1022 30.18 852 25.16 21.9 71.5 29 3.4 38.1
13:55 1022 30.18 852 25.16 21.6 70.8 29 2.7 36.9
14:00 1022 30.18 852 25.16 20.6 69.1 31 3 37.5
14:05 1022 30.18 852 25.16 21 69.8 29 2.5 36.4
14:10 1022 30.18 851 25.13 21.6 70.9 28 2.7 36.9
14:15 1022 30.18 851 25.13 22 71.6 28 2.8 37
14:20 1022 30.18 851 25.13 22.4 72.3 27 2.6 36.7
14:25 1022 30.18 851 25.13 22.7 72.8 27 3 37.4
14:30 1022 30.18 851 25.13 22.5 72.6 26 2.2 36
14:35 1022 30.18 851 25.13 22.3 72.2 27 2.6 36.8
14:40 1022 30.18 851 25.13 22 71.6 26 2 35.5
14:45 1022 30.18 851 25.13 22.3 72.2 26 2.2 35.9
14:50 1022 30.18 851 25.13 21.1 70 29 2.4 36.4
14:55 1022 30.18 851 25.13 20.9 69.7 28 1.8 35.2
15:00 1022 30.18 851 25.13 21.2 70.1 27 1.6 34.8
15:05 1022 30.18 851 25.13 22 71.5 26 2 35.6
15:10 1022 30.18 851 25.13 21.9 71.3 27 2 35.6
15:15 1022 30.18 851 25.13 22.5 72.5 26 2.1 35.8
15:20 1022 30.18 851 25.13 22.4 72.2 25 1.3 34.4
15:25 1022 30.18 851 25.13 22.6 72.8 26 2.4 36.4
15:30 1022 30.18 851 25.13 22.5 72.5 25 1.7 35.1
15:35 1022 30.18 851 25.13 21.7 71.1 27 2.1 35.9
15:40 1022 30.18 851 25.13 22.3 72.2 26 1.9 35.4
15:45 1022 30.18 851 25.13 22.4 72.4 26 2.2 36
15:50 1022 30.18 851 25.13 21.8 71.3 26 1.7 35.1
15:55 1022 30.18 851 25.13 21.9 71.4 26 1.8 35.3
16:00 1021 30.15 851 25.13 22.3 72.1 25 1.4 34.6
16:05 1021 30.15 851 25.13 23.2 73.7 26 2.9 37.2
16:10 1021 30.15 851 25.13 23 73.4 25 2.1 35.9
16:15 1021 30.15 850 25.1 23 73.4 24 1.8 35.3
16:20 1021 30.15 850 25.1 22.6 72.7 26 2.1 35.7
16:25 1021 30.15 850 25.1 22.1 71.9 26 1.7 35.1
16:30 1021 30.15 850 25.1 22.3 72.1 25 1.3 34.3
16:35 1021 30.15 850 25.1 22.3 72.2 25 1.8 35.2
16:40 1021 30.15 850 25.1 21.7 71.1 26 1.6 34.9
16:45 1021 30.15 850 25.1 22.5 72.4 25 1.6 34.8
16:50 1021 30.15 850 25.1 23.3 73.9 25 2.2 35.9
16:55 1021 30.15 850 25.1 22.9 73.1 25 2 35.7
17:00 1021 30.15 850 25.1 23 73.5 24 1.8 35.2
17:05 1021 30.15 850 25.1 23 73.4 24 1.5 34.7
17:10 1021 30.15 850 25.1 22.7 72.8 24 1.3 34.3
17:15 1021 30.15 850 25.1 23.2 73.8 23 1.2 34.1
17:20 1021 30.15 850 25.1 22.9 73.2 23 1 33.8
17:25 1021 30.15 850 25.1 22.3 72.1 25 1.4 34.6
17:30 1021 30.15 850 25.1 22.7 72.8 23 0.9 33.6
17:35 1021 30.15 850 25.1 23.2 73.8 24 1.8 35.2
17:40 1021 30.15 850 25.1 23.3 73.9 24 1.7 35.1
17:45 1021 30.15 850 25.1 23.4 74.1 22 0.8 33.4
17:50 1021 30.15 850 25.1 23.1 73.5 23 1.3 34.3
17:55 1021 30.15 850 25.1 22.3 72.2 23 0.7 33.2
18:00 1021 30.15 850 25.1 22.1 71.8 23 0.5 32.9
18:05 1021 30.15 850 25.1 22.6 72.7 22 0.2 32.4
18:10 1021 30.15 850 25.1 22.8 73 21 -0.2 31.6
18:15 1021 30.15 850 25.1 23 73.4 21 -0 32
18:20 1020 30.12 850 25.1 23.3 73.9 20 -0.6 30.9
18:25 1020 30.12 850 25.1 23 73.5 21 -0.4 31.2
18:30 1020 30.12 850 25.1 22.7 72.8 21 -0.7 30.8
18:35 1020 30.12 850 25.1 22.6 72.6 21 -0.7 30.7
18:40 1020 30.12 850 25.1 22.4 72.4 20 -1.4 29.4
18:45 1020 30.12 850 25.1 22.5 72.4 20 -1.4 29.4
18:50 1020 30.12 850 25.1 22.2 72 21 -0.7 30.8
18:55 1020 30.12 850 25.1 22.2 72 21 -0.7 30.8
19:00 1020 30.12 850 25.1 21.9 71.4 22 -0.5 31.2
19:05 1020 30.12 850 25.1 21.8 71.3 23 0.1 32.2
19:10 1020 30.12 850 25.1 21.9 71.4 22 -0.4 31.3
19:15 1020 30.12 850 25.1 21.7 71.1 24 0.2 32.3
19:20 1020 30.12 850 25.1 21.6 70.8 23 -0.1 31.9
19:25 1020 30.12 850 25.1 21.7 71 24 0.5 32.8
19:30 1020 30.12 850 25.1 21.6 70.8 23 0 32.1
19:35 1020 30.12 850 25.1 21.5 70.6 24 0.4 32.8
19:40 1020 30.12 850 25.1 21.5 70.8 25 0.7 33.3
19:45 1020 30.12 850 25.1 21.4 70.6 24 0.5 32.8
19:50 1020 30.12 850 25.1 21.4 70.4 24 0.4 32.7
19:55 1020 30.12 850 25.1 21.3 70.3 25 0.6 33.2
20:00 1020 30.12 850 25.1 21.2 70.2 25 0.4 32.8
20:05 1020 30.12 850 25.1 21 69.7 25 0.4 32.7
20:10 1020 30.12 850 25.1 20.9 69.6 27 1.5 34.7
20:15 1020 30.12 850 25.1 20.8 69.5 29 2.5 36.6
20:20 1020 30.12 850 25.1 20.8 69.4 27 1.1 34
20:25 1020 30.12 850 25.1 20.7 69.2 29 2.1 35.7
20:30 1020 30.12 850 25.1 20.4 68.8 32 3.3 37.9
20:35 1020 30.12 850 25.1 20.3 68.5 32 3.4 38.1
20:40 1021 30.15 850 25.1 19.6 67.4 35 3.9 39
20:45 1021 30.15 850 25.1 18.9 65.9 38 4.4 40
20:50 1021 30.15 850 25.1 18 64.4 43 5.3 41.5
20:55 1021 30.15 850 25.1 17.3 63.2 41 4 39.2
21:00 1021 30.15 850 25.1 16.7 62.1 49 5.9 42.7
21:05 1021 30.15 850 25.1 16.6 61.9 43 4 39.1
21:10 1021 30.15 850 25.1 16 60.7 46 4.6 40.2
21:15 1021 30.15 850 25.1 15.4 59.6 46 4 39.2
21:20 1021 30.15 850 25.1 15.3 59.5 44 3 37.5
21:25 1021 30.15 850 25.1 15.2 59.4 42 2.6 36.7
21:30 1021 30.15 850 25.1 15.4 59.7 40 2.1 35.7
21:35 1021 30.15 850 25.1 15.6 60 42 2.7 36.8
21:40 1021 30.15 850 25.1 15.3 59.5 42 2.5 36.6
21:45 1021 30.15 850 25.1 15.1 59.2 48 4.2 39.5
21:50 1021 30.15 850 25.1 15.1 59.1 44 2.8 37.1
21:55 1021 30.15 851 25.13 14.8 58.6 49 4.1 39.5
22:00 1021 30.15 851 25.13 14.8 58.6 43 2.2 36
22:05 1021 30.15 851 25.13 15 59 40 1.5 34.7
22:10 1021 30.15 851 25.13 15.4 59.6 41 2.3 36.1
22:15 1021 30.15 851 25.13 15 59.1 42 2.2 36
22:20 1021 30.15 851 25.13 14.7 58.4 48 4 39.2
22:25 1021 30.15 851 25.13 13.9 57 47 2.8 37
22:30 1021 30.15 851 25.13 13.7 56.6 49 3.3 37.9
22:35 1021 30.15 851 25.13 14.1 57.3 42 1.3 34.4
22:40 1021 30.15 851 25.13 14.7 58.4 37 0.2 32.4
22:45 1021 30.15 851 25.13 14.8 58.7 38 0.7 33.3
22:50 1021 30.15 851 25.13 14.7 58.4 39 1 33.8
22:55 1021 30.15 851 25.13 14.3 57.8 39 0.5 32.9
23:00 1021 30.15 851 25.13 14.5 58 36 -0.5 31.2
23:05 1021 30.15 851 25.13 14.6 58.3 35 -0.4 31.3
23:10 1021 30.15 851 25.13 14.5 58.1 36 -0.2 31.6
23:15 1021 30.15 851 25.13 14.3 57.8 35 -0.8 30.5
23:20 1021 30.15 851 25.13 14.5 58.1 33 -1.4 29.5
23:25 1021 30.15 850 25.1 14.9 58.9 32 -1.7 28.9
23:30 1021 30.15 850 25.1 15.1 59.1 31 -1.9 28.5
23:35 1021 30.15 850 25.1 15.2 59.4 30 -2.1 28.2
23:40 1021 30.15 851 25.13 15.4 59.7 30 -2.2 28
23:45 1021 30.15 851 25.13 15.7 60.2 29 -2.2 28
23:50 1021 30.15 850 25.1 16.1 60.9 28 -2.2 28.1
23:55 1021 30.15 850 25.1 16.4 61.5 29 -1.7 28.9
24:00 1021 30.15 851 25.13 16.6 61.8 29 -1.5 29.3